Time;durP1;ratioP1;P1;durP2;ratioP2;P2;SDS_P1;SDS_P2;PMS_P1;PMS_P2;Temp;Humidity;BMP_temperature;BMP_pressure;BME280_temperature;BME280_humidity;BME280_pressure;Samples;Min_cycle;Max_cycle;Signal;HPM_P1;HPM_P2
2023/10/06 00:01:41;;;;;;;7.78;4.57;;;14.40;99.90;;;;;;5012329;28;20042;-79
2023/10/06 00:04:08;;;;;;;9.60;4.43;;;14.40;99.90;;;;;;5012389;28;20050;-80
2023/10/06 00:06:37;;;;;;;8.25;3.80;;;14.40;99.90;;;;;;5011950;28;20069;-80
2023/10/06 00:09:06;;;;;;;6.88;3.95;;;14.40;99.90;;;;;;5012069;28;20619;-82
2023/10/06 00:11:32;;;;;;;5.28;3.50;;;14.40;99.90;;;;;;5012320;28;20057;-81
2023/10/06 00:14:07;;;;;;;7.03;4.07;;;14.40;99.90;;;;;;5012281;28;20042;-82
2023/10/06 00:16:39;;;;;;;8.07;4.22;;;14.40;99.90;;;;;;5012799;28;20128;-81
2023/10/06 00:19:37;;;;;;;8.65;4.40;;;14.40;99.90;;;;;;5012311;28;20120;-82
2023/10/06 00:24:44;;;;;;;9.27;4.10;;;14.40;99.90;;;;;;5012529;28;20462;-82
2023/10/06 00:27:13;;;;;;;7.93;4.32;;;14.40;99.90;;;;;;5012333;28;20042;-81
2023/10/06 00:29:47;;;;;;;9.40;4.10;;;14.50;99.90;;;;;;5011869;28;20154;-81
2023/10/06 00:32:22;;;;;;;7.18;4.07;;;14.40;99.90;;;;;;5012714;28;20109;-81
2023/10/06 00:34:55;;;;;;;6.50;3.90;;;14.40;99.90;;;;;;5012330;28;20060;-80
2023/10/06 00:37:24;;;;;;;9.45;4.75;;;14.30;99.90;;;;;;5012735;28;20050;-82
2023/10/06 00:39:54;;;;;;;8.25;4.05;;;14.30;99.90;;;;;;5012166;28;20052;-81
2023/10/06 00:42:26;;;;;;;6.80;3.67;;;14.30;99.90;;;;;;5012718;28;20400;-81
2023/10/06 00:44:53;;;;;;;6.38;3.97;;;14.40;99.90;;;;;;5012709;28;20053;-82
2023/10/06 00:47:21;;;;;;;6.82;4.13;;;14.30;99.90;;;;;;5012045;28;20053;-81
2023/10/06 00:49:47;;;;;;;6.72;3.40;;;14.30;99.90;;;;;;5012124;28;20125;-82
2023/10/06 00:52:15;;;;;;;6.05;3.90;;;14.20;99.90;;;;;;5012051;28;20050;-81
2023/10/06 00:54:43;;;;;;;8.13;3.92;;;14.20;99.90;;;;;;5012425;28;20124;-82
2023/10/06 00:57:18;;;;;;;6.28;4.43;;;14.20;99.90;;;;;;5011682;28;20080;-81
2023/10/06 00:59:44;;;;;;;10.70;4.63;;;14.20;99.90;;;;;;5012013;28;20045;-81
2023/10/06 01:02:11;;;;;;;7.47;4.85;;;14.20;99.90;;;;;;5011830;28;20046;-82
2023/10/06 01:04:45;;;;;;;8.55;4.43;;;14.20;99.90;;;;;;5013299;28;20085;-81
2023/10/06 01:07:13;;;;;;;8.13;3.97;;;14.10;99.90;;;;;;5015828;28;20048;-81
2023/10/06 01:09:56;;;;;;;9.63;4.35;;;14.10;99.90;;;;;;5014863;28;20050;-82
2023/10/06 01:12:24;;;;;;;8.05;4.47;;;14.10;99.90;;;;;;5015863;28;20042;-81
2023/10/06 01:14:51;;;;;;;7.55;4.22;;;14.10;99.90;;;;;;5015241;28;20089;-81
2023/10/06 01:17:18;;;;;;;8.70;4.75;;;14.20;99.90;;;;;;5015285;28;20060;-82
2023/10/06 01:19:47;;;;;;;9.23;5.13;;;14.20;99.90;;;;;;5014793;28;20492;-82
2023/10/06 01:22:28;;;;;;;7.95;5.35;;;14.20;99.90;;;;;;5015078;28;20046;-82
2023/10/06 01:24:55;;;;;;;9.90;5.07;;;14.20;99.90;;;;;;5015524;28;20077;-81
2023/10/06 01:27:27;;;;;;;8.60;4.55;;;14.20;99.90;;;;;;5015256;28;20050;-81
2023/10/06 01:32:54;;;;;;;9.38;5.57;;;14.30;99.90;;;;;;4992115;28;20076;-81
2023/10/06 01:35:23;;;;;;;9.38;6.35;;;14.20;99.90;;;;;;5015297;28;20514;-82
2023/10/06 01:37:59;;;;;;;9.15;5.38;;;14.20;99.90;;;;;;5014890;28;20046;-82
2023/10/06 01:42:51;;;;;;;7.22;5.60;;;14.20;99.90;;;;;;5015511;28;20125;-81
2023/10/06 01:45:21;;;;;;;12.05;6.22;;;14.30;99.90;;;;;;5014818;28;20038;-80
2023/10/06 01:48:14;;;;;;;9.40;6.45;;;14.30;99.90;;;;;;5014703;28;20104;-82
2023/10/06 01:50:41;;;;;;;10.03;6.23;;;14.30;99.90;;;;;;5014545;28;20057;-82
2023/10/06 01:53:10;;;;;;;10.93;6.55;;;14.40;99.90;;;;;;5014903;28;20284;-81
2023/10/06 01:55:38;;;;;;;10.32;5.95;;;14.40;99.90;;;;;;5014907;28;20100;-81
2023/10/06 01:58:06;;;;;;;11.32;6.05;;;14.40;99.90;;;;;;5015299;28;20065;-82
2023/10/06 02:00:34;;;;;;;7.95;6.70;;;14.40;99.90;;;;;;5014687;28;20054;-81
2023/10/06 02:03:00;;;;;;;11.15;6.60;;;14.40;99.90;;;;;;5014805;28;20050;-81
2023/10/06 02:05:26;;;;;;;10.73;6.95;;;14.40;99.90;;;;;;5014288;28;20486;-82
2023/10/06 02:08:00;;;;;;;14.30;6.63;;;14.40;99.90;;;;;;5014818;28;20057;-81
2023/10/06 02:10:26;;;;;;;9.45;6.63;;;14.50;99.90;;;;;;5014470;28;20528;-82
2023/10/06 02:12:52;;;;;;;12.30;6.60;;;14.50;99.90;;;;;;5014171;28;20057;-81
2023/10/06 02:15:18;;;;;;;14.30;7.20;;;14.50;99.90;;;;;;5013681;28;20061;-81
2023/10/06 02:17:44;;;;;;;10.15;6.55;;;14.50;99.90;;;;;;5014124;28;20103;-80
2023/10/06 02:20:29;;;;;;;13.00;7.70;;;14.50;99.90;;;;;;5013995;28;20528;-81
2023/10/06 02:22:59;;;;;;;11.07;6.10;;;14.60;99.90;;;;;;5012800;28;20121;-82
2023/10/06 02:25:26;;;;;;;9.48;6.13;;;14.50;99.90;;;;;;5013983;28;20049;-81
2023/10/06 02:27:56;;;;;;;11.85;6.65;;;14.50;99.90;;;;;;5012643;28;20513;-80
2023/10/06 02:30:33;;;;;;;10.73;6.25;;;14.60;99.90;;;;;;5013884;28;20042;-81
2023/10/06 02:32:59;;;;;;;8.77;6.10;;;14.60;99.90;;;;;;5014109;28;20117;-82
2023/10/06 02:35:25;;;;;;;9.23;6.38;;;14.60;99.90;;;;;;5012405;28;20517;-81
2023/10/06 02:37:51;;;;;;;11.82;6.20;;;14.60;99.90;;;;;;5014100;28;20050;-82
2023/10/06 02:40:16;;;;;;;7.93;5.93;;;14.60;99.90;;;;;;5013733;28;20056;-82
2023/10/06 02:42:51;;;;;;;12.95;6.57;;;14.60;99.90;;;;;;5012577;28;20048;-81
2023/10/06 02:45:20;;;;;;;11.85;6.18;;;14.60;99.90;;;;;;5013804;28;20099;-81
2023/10/06 02:47:51;;;;;;;12.05;6.78;;;14.60;99.90;;;;;;5013721;28;20041;-81
2023/10/06 02:50:20;;;;;;;8.38;5.78;;;14.60;99.90;;;;;;5013844;28;20048;-82
2023/10/06 02:52:47;;;;;;;12.50;6.38;;;14.60;99.90;;;;;;5013595;28;20082;-82
2023/10/06 02:55:30;;;;;;;9.30;5.88;;;14.60;99.90;;;;;;5013616;28;20132;-81
2023/10/06 02:57:57;;;;;;;9.63;5.78;;;14.60;99.90;;;;;;5014377;28;20061;-82
2023/10/06 03:05:49;;;;;;;;;;;14.50;99.90;;;;;;4997640;28;20525;-81
2023/10/06 03:08:20;;;;;;;9.15;6.85;;;14.40;99.90;;;;;;5013439;28;19921;-80
2023/10/06 03:10:48;;;;;;;14.27;6.65;;;14.30;99.90;;;;;;5013943;28;20050;-82
2023/10/06 03:13:35;;;;;;;14.27;5.82;;;14.30;99.90;;;;;;5013235;28;20053;-81
2023/10/06 03:16:02;;;;;;;11.10;6.45;;;14.30;99.90;;;;;;5013778;28;20077;-81
2023/10/06 03:18:30;;;;;;;13.18;7.13;;;14.30;99.90;;;;;;5013869;28;20054;-81
2023/10/06 03:21:14;;;;;;;11.32;6.55;;;14.20;99.90;;;;;;5013952;28;20049;-81
2023/10/06 03:23:45;;;;;;;16.17;8.15;;;14.20;99.90;;;;;;5012687;28;20053;-81
2023/10/06 03:26:19;;;;;;;11.77;6.88;;;14.20;99.90;;;;;;5013836;28;20073;-81
2023/10/06 03:28:49;;;;;;;12.55;6.43;;;14.20;99.90;;;;;;5012249;28;20060;-79
2023/10/06 03:33:46;;;;;;;10.43;6.78;;;14.20;99.90;;;;;;5013105;28;20180;-79
2023/10/06 03:36:15;;;;;;;12.40;7.38;;;14.20;99.90;;;;;;5011843;28;20045;-81
2023/10/06 03:38:53;;;;;;;10.85;7.63;;;14.30;99.90;;;;;;5013109;28;20093;-82
2023/10/06 03:41:19;;;;;;;12.30;7.57;;;14.30;99.90;;;;;;5012984;28;20038;-81
2023/10/06 03:43:50;;;;;;;12.18;7.22;;;14.30;99.90;;;;;;5013370;28;20049;-80
2023/10/06 03:46:20;;;;;;;10.88;7.35;;;14.30;99.90;;;;;;5013599;28;20050;-81
2023/10/06 03:48:48;;;;;;;11.48;7.53;;;14.30;99.90;;;;;;5012831;28;20081;-81
2023/10/06 03:51:16;;;;;;;10.38;7.18;;;14.30;99.90;;;;;;5012649;28;20512;-81
2023/10/06 03:53:41;;;;;;;12.40;7.65;;;14.30;99.90;;;;;;5013113;28;20077;-80
2023/10/06 03:56:08;;;;;;;13.00;8.55;;;14.30;99.90;;;;;;5012356;28;20053;-81
2023/10/06 03:58:34;;;;;;;15.75;8.93;;;14.30;99.90;;;;;;5012730;28;20481;-81
2023/10/06 04:01:07;;;;;;;13.73;9.43;;;14.30;99.90;;;;;;5013114;28;20045;-80
2023/10/06 04:03:33;;;;;;;13.75;8.02;;;14.30;99.90;;;;;;5013194;28;20111;-81
2023/10/06 04:06:03;;;;;;;11.25;7.32;;;14.30;99.90;;;;;;5012827;28;20099;-79
2023/10/06 04:08:29;;;;;;;13.50;8.55;;;14.20;99.90;;;;;;5012716;28;20052;-81
2023/10/06 04:10:58;;;;;;;21.85;9.45;;;14.30;99.90;;;;;;5012711;28;20045;-81
2023/10/06 04:13:28;;;;;;;12.98;8.35;;;14.30;99.90;;;;;;5012586;28;20050;-80
2023/10/06 04:15:53;;;;;;;15.20;7.90;;;14.20;99.90;;;;;;5012380;28;20050;-80
2023/10/06 04:18:24;;;;;;;14.38;7.57;;;14.30;99.90;;;;;;5012411;28;20167;-81
2023/10/06 04:20:51;;;;;;;13.02;8.18;;;14.30;99.90;;;;;;5012293;28;20037;-81
2023/10/06 04:23:18;;;;;;;13.20;8.75;;;14.20;99.90;;;;;;5011016;28;20119;-80
2023/10/06 04:25:45;;;;;;;14.98;7.93;;;14.20;99.90;;;;;;5012433;28;20050;-81
2023/10/06 04:28:16;;;;;;;11.23;7.57;;;14.20;99.90;;;;;;4995141;28;20042;-80
2023/10/06 04:30:46;;;;;;;14.50;7.93;;;14.20;99.90;;;;;;5012530;28;20042;-80
2023/10/06 04:33:14;;;;;;;13.15;8.73;;;14.20;99.90;;;;;;5011330;28;20041;-80
2023/10/06 04:35:56;;;;;;;16.83;8.02;;;14.20;99.90;;;;;;5011005;28;20058;-81
2023/10/06 04:38:23;;;;;;;11.50;7.90;;;14.20;99.90;;;;;;5012561;28;20351;-81
2023/10/06 04:40:49;;;;;;;10.07;7.07;;;14.20;99.90;;;;;;5015874;28;20054;-80
2023/10/06 04:43:17;;;;;;;14.02;7.10;;;14.20;99.90;;;;;;5016353;28;20062;-80
2023/10/06 04:45:47;;;;;;;15.38;8.77;;;14.20;99.90;;;;;;5015700;28;20046;-80
2023/10/06 04:48:15;;;;;;;14.25;8.27;;;14.20;99.90;;;;;;5014843;28;20072;-81
2023/10/06 04:50:44;;;;;;;11.55;6.88;;;14.20;99.90;;;;;;5014845;28;20061;-81
2023/10/06 04:53:11;;;;;;;14.95;7.88;;;14.20;99.90;;;;;;5015410;28;20050;-80
2023/10/06 04:55:38;;;;;;;11.25;7.85;;;14.20;99.90;;;;;;5015789;28;20050;-81
2023/10/06 04:58:20;;;;;;;10.90;7.75;;;14.20;99.90;;;;;;5015384;28;20053;-80
2023/10/06 05:00:52;;;;;;;10.80;7.22;;;14.20;99.90;;;;;;5015908;28;20069;-81
2023/10/06 05:03:18;;;;;;;10.80;7.22;;;14.20;99.90;;;;;;5015385;28;20528;-80
2023/10/06 05:05:44;;;;;;;11.95;7.55;;;14.20;99.90;;;;;;5015405;28;20127;-81
2023/10/06 05:08:14;;;;;;;14.18;7.70;;;14.30;99.90;;;;;;5015197;28;20447;-80
2023/10/06 05:10:40;;;;;;;12.90;7.20;;;14.30;99.90;;;;;;5015674;28;20081;-81
2023/10/06 05:13:07;;;;;;;10.95;6.93;;;14.20;99.90;;;;;;5014112;28;20100;-81
2023/10/06 05:15:37;;;;;;;12.15;7.10;;;14.30;99.90;;;;;;5014026;28;20060;-81
2023/10/06 05:18:04;;;;;;;13.68;7.50;;;14.20;99.90;;;;;;5015393;28;20057;-80
2023/10/06 05:20:31;;;;;;;13.30;7.05;;;14.20;99.90;;;;;;5013923;28;20069;-80
2023/10/06 05:22:58;;;;;;;12.35;7.40;;;14.20;99.90;;;;;;5015108;28;20062;-81
2023/10/06 05:25:26;;;;;;;12.45;6.95;;;14.20;99.90;;;;;;5014940;28;20050;-81
2023/10/06 05:27:53;;;;;;;10.90;7.30;;;14.20;99.90;;;;;;5015392;28;20060;-81
2023/10/06 05:30:21;;;;;;;8.90;6.57;;;14.20;99.90;;;;;;5014981;28;20085;-80
2023/10/06 05:32:47;;;;;;;13.15;6.97;;;14.20;99.90;;;;;;5014015;28;20054;-81
2023/10/06 05:35:13;;;;;;;14.73;7.53;;;14.20;99.90;;;;;;5014992;28;20057;-81
2023/10/06 05:37:46;;;;;;;16.95;7.47;;;14.20;99.90;;;;;;5015166;28;20107;-81
2023/10/06 05:40:16;;;;;;;11.20;6.90;;;14.20;99.90;;;;;;5014130;28;20062;-80
2023/10/06 05:42:42;;;;;;;16.60;7.60;;;14.20;99.90;;;;;;5014918;28;20058;-80
2023/10/06 05:45:15;;;;;;;11.52;7.63;;;14.20;99.90;;;;;;5015233;28;20049;-81
2023/10/06 05:47:45;;;;;;;11.45;6.72;;;14.20;99.90;;;;;;5014642;28;20440;-81
2023/10/06 05:50:18;;;;;;;14.00;6.68;;;14.30;99.90;;;;;;5014406;28;20093;-82
2023/10/06 05:52:45;;;;;;;11.35;6.50;;;14.30;99.90;;;;;;5013586;28;20510;-81
2023/10/06 05:55:12;;;;;;;22.73;7.55;;;14.30;99.90;;;;;;5013902;28;20057;-80
2023/10/06 05:57:43;;;;;;;15.77;6.10;;;14.30;99.90;;;;;;5014849;28;20061;-81
2023/10/06 06:00:18;;;;;;;12.60;6.95;;;14.30;99.90;;;;;;5014482;28;20443;-81
2023/10/06 06:02:47;;;;;;;17.00;7.25;;;14.30;99.90;;;;;;5015059;28;20172;-81
2023/10/06 06:05:13;;;;;;;14.10;8.20;;;14.30;99.90;;;;;;5014499;28;20045;-81
2023/10/06 06:07:38;;;;;;;19.30;6.85;;;14.30;99.90;;;;;;5013284;28;20394;-81
2023/10/06 06:10:04;;;;;;;11.50;7.43;;;14.40;99.90;;;;;;5014362;28;20049;-81
2023/10/06 06:12:30;;;;;;;13.90;6.95;;;14.40;99.90;;;;;;5014167;28;20505;-73
2023/10/06 06:14:56;;;;;;;12.77;7.18;;;14.40;99.90;;;;;;5014932;28;20050;-72
2023/10/06 06:17:22;;;;;;;11.20;6.70;;;14.40;99.90;;;;;;5014202;28;20458;-73
2023/10/06 06:19:47;;;;;;;12.20;7.25;;;14.50;99.90;;;;;;5013360;28;20517;-72
2023/10/06 06:22:13;;;;;;;10.48;7.15;;;14.50;99.90;;;;;;5014462;28;20053;-73
2023/10/06 06:24:40;;;;;;;10.98;7.18;;;14.60;99.90;;;;;;5014172;28;20046;-73
2023/10/06 06:27:06;;;;;;;9.80;6.75;;;14.60;99.90;;;;;;5014005;28;20115;-73
2023/10/06 06:29:32;;;;;;;12.35;6.90;;;14.60;99.90;;;;;;5013152;28;20053;-73
2023/10/06 06:31:58;;;;;;;8.27;6.53;;;14.60;99.90;;;;;;5012448;28;20100;-72
2023/10/06 06:34:23;;;;;;;9.00;7.28;;;14.70;99.90;;;;;;5014260;28;20057;-74
2023/10/06 06:36:49;;;;;;;12.40;7.10;;;14.70;99.90;;;;;;5013848;28;20120;-75
2023/10/06 06:39:16;;;;;;;8.95;6.70;;;14.70;99.90;;;;;;5013396;28;20061;-74
2023/10/06 06:41:43;;;;;;;14.32;7.13;;;14.70;99.90;;;;;;5013123;28;20050;-82
2023/10/06 06:44:08;;;;;;;8.98;6.63;;;14.70;99.90;;;;;;5014219;28;20053;-81
2023/10/06 06:46:35;;;;;;;11.50;7.10;;;14.70;99.90;;;;;;5013933;28;20050;-82
2023/10/06 06:49:01;;;;;;;10.82;7.20;;;14.70;99.90;;;;;;5013514;28;20057;-82
2023/10/06 06:51:30;;;;;;;10.88;6.88;;;14.80;99.90;;;;;;5012722;28;20046;-82
2023/10/06 06:53:56;;;;;;;8.77;6.63;;;14.80;99.90;;;;;;5013275;28;20050;-81
2023/10/06 06:56:28;;;;;;;13.98;6.85;;;14.80;99.90;;;;;;5013104;28;20176;-80
2023/10/06 06:58:55;;;;;;;8.48;6.38;;;14.80;99.90;;;;;;5013231;28;20089;-81
2023/10/06 07:01:21;;;;;;;10.07;6.95;;;14.80;99.90;;;;;;5013808;28;20081;-80
2023/10/06 07:03:47;;;;;;;11.55;7.07;;;14.90;99.90;;;;;;5013723;28;20410;-81
2023/10/06 07:06:16;;;;;;;12.68;7.18;;;15.00;99.90;;;;;;5013478;28;20498;-82
2023/10/06 07:08:46;;;;;;;10.00;7.45;;;14.60;99.90;;;;;;5012036;28;20093;-83
2023/10/06 07:11:13;;;;;;;13.85;7.03;;;15.10;99.90;;;;;;5012452;28;20128;-82
2023/10/06 07:13:39;;;;;;;14.07;7.35;;;15.10;99.90;;;;;;5012400;28;20038;-81
2023/10/06 07:16:09;;;;;;;12.82;7.22;;;15.10;99.90;;;;;;5013174;28;20089;-84
2023/10/06 07:18:36;;;;;;;13.77;7.45;;;15.20;99.90;;;;;;5013067;28;20125;-81
2023/10/06 07:21:08;;;;;;;15.90;7.45;;;15.20;99.90;;;;;;5013000;28;20042;-81
2023/10/06 07:23:37;;;;;;;14.57;6.53;;;15.30;99.90;;;;;;5013064;28;20053;-81
2023/10/06 07:26:11;;;;;;;11.65;6.90;;;15.30;99.90;;;;;;5012991;28;20316;-81
2023/10/06 07:28:40;;;;;;;10.68;7.03;;;15.40;99.90;;;;;;5011675;28;20052;-81
2023/10/06 07:31:12;;;;;;;9.15;6.95;;;15.40;99.90;;;;;;5013000;28;20078;-81
2023/10/06 07:33:39;;;;;;;14.27;7.28;;;15.40;99.90;;;;;;5013359;28;20107;-82
2023/10/06 07:36:17;;;;;;;11.23;7.30;;;15.40;99.90;;;;;;5012722;28;20503;-81
2023/10/06 07:38:44;;;;;;;13.07;7.45;;;15.40;99.90;;;;;;5013202;28;20057;-81
2023/10/06 07:41:20;;;;;;;13.93;8.48;;;15.40;99.90;;;;;;5012639;28;20046;-80
2023/10/06 07:43:48;;;;;;;9.75;7.13;;;15.50;99.90;;;;;;5011764;28;20128;-80
2023/10/06 07:46:16;;;;;;;10.80;7.30;;;15.50;99.90;;;;;;5011407;28;20137;-80
2023/10/06 07:48:42;;;;;;;15.55;7.90;;;15.60;99.90;;;;;;5011751;28;20053;-80
2023/10/06 07:51:08;;;;;;;16.40;7.88;;;15.70;99.90;;;;;;5013388;28;20042;-79
2023/10/06 07:53:38;;;;;;;14.23;8.35;;;15.80;99.90;;;;;;5012643;28;20478;-81
2023/10/06 07:56:08;;;;;;;12.10;7.50;;;15.90;99.90;;;;;;5012173;28;20116;-81
2023/10/06 07:58:37;;;;;;;13.73;8.95;;;15.90;99.90;;;;;;5013140;28;20096;-81
2023/10/06 08:01:13;;;;;;;11.63;8.02;;;16.00;99.90;;;;;;5013034;28;20053;-80
2023/10/06 08:03:41;;;;;;;13.85;7.95;;;16.00;99.90;;;;;;5012496;28;20092;-81
2023/10/06 08:06:08;;;;;;;10.02;8.20;;;15.90;99.90;;;;;;5011118;28;20081;-80
2023/10/06 08:08:34;;;;;;;15.55;8.38;;;15.90;99.90;;;;;;5011328;28;20377;-80
2023/10/06 08:11:05;;;;;;;11.55;8.18;;;15.90;99.90;;;;;;5012738;28;20057;-80
2023/10/06 08:13:33;;;;;;;11.15;8.15;;;15.80;99.90;;;;;;5013449;28;20455;-80
2023/10/06 08:16:02;;;;;;;13.50;8.77;;;15.80;99.90;;;;;;5016462;28;20049;-82
2023/10/06 08:18:29;;;;;;;14.50;7.45;;;15.80;99.90;;;;;;5016486;28;20046;-82
2023/10/06 08:21:02;;;;;;;14.88;7.72;;;15.90;99.90;;;;;;5016269;28;20068;-81
2023/10/06 08:27:27;;;;;;;12.52;7.38;;;16.10;99.90;;;;;;4956342;28;20505;-81
2023/10/06 08:29:52;;;;;;;12.60;7.97;;;16.10;99.90;;;;;;5015352;28;20340;-81
2023/10/06 08:32:19;;;;;;;16.45;7.63;;;16.30;99.90;;;;;;5015623;28;20137;-80
2023/10/06 08:34:46;;;;;;;10.63;6.90;;;16.50;99.90;;;;;;4998815;28;20046;-81
2023/10/06 08:37:14;;;;;;;13.45;7.95;;;16.60;99.90;;;;;;5016750;28;20076;-80
2023/10/06 08:39:40;;;;;;;16.40;7.95;;;16.80;99.90;;;;;;5016020;28;20045;-82
2023/10/06 08:42:12;;;;;;;15.88;7.50;;;17.00;99.90;;;;;;5016082;28;20049;-81
2023/10/06 08:44:39;;;;;;;17.38;7.80;;;17.10;99.90;;;;;;5016190;28;20054;-81
2023/10/06 08:47:09;;;;;;;10.35;7.18;;;17.40;99.90;;;;;;5015408;28;20517;-81
2023/10/06 08:49:36;;;;;;;10.93;7.82;;;17.60;99.90;;;;;;5015385;28;20060;-80
2023/10/06 08:52:04;;;;;;;10.90;6.85;;;17.70;99.90;;;;;;5015848;28;20045;-80
2023/10/06 08:54:31;;;;;;;14.20;7.28;;;17.90;99.90;;;;;;5014798;28;20058;-81
2023/10/06 08:56:57;;;;;;;10.70;7.05;;;17.90;99.90;;;;;;5014397;28;20382;-81
2023/10/06 08:59:23;;;;;;;16.75;7.95;;;18.40;99.90;;;;;;5015529;28;20050;-82
2023/10/06 09:01:50;;;;;;;10.60;7.40;;;18.50;99.90;;;;;;5015823;28;20073;-82
2023/10/06 09:04:15;;;;;;;11.60;6.80;;;18.40;99.90;;;;;;5015555;28;20058;-81
2023/10/06 09:07:12;;;;;;;9.95;7.05;;;18.00;99.90;;;;;;5015227;28;20041;-82
2023/10/06 09:09:38;;;;;;;10.07;6.68;;;17.90;99.90;;;;;;5015162;28;20501;-82
2023/10/06 09:12:04;;;;;;;14.35;7.32;;;18.00;99.90;;;;;;5015372;28;20057;-81
2023/10/06 09:14:31;;;;;;;9.93;6.32;;;18.00;99.90;;;;;;5015464;28;20057;-81
2023/10/06 09:17:01;;;;;;;10.88;7.38;;;18.20;99.90;;;;;;5015581;28;20078;-81
2023/10/06 09:19:46;;;;;;;10.43;5.82;;;18.50;99.90;;;;;;5015603;28;20053;-82
2023/10/06 09:22:11;;;;;;;12.60;6.70;;;18.70;99.90;;;;;;5015841;28;20045;-80
2023/10/06 09:24:39;;;;;;;13.88;6.90;;;18.70;99.90;;;;;;5014402;28;20547;-80
2023/10/06 09:27:25;;;;;;;10.90;6.97;;;18.60;99.90;;;;;;5015281;28;20054;-81
2023/10/06 09:30:01;;;;;;;10.30;6.80;;;18.30;99.90;;;;;;5015113;28;20048;-81
2023/10/06 09:32:27;;;;;;;11.35;6.55;;;18.30;99.90;;;;;;5013518;28;20479;-80
2023/10/06 09:34:57;;;;;;;7.85;5.30;;;18.20;99.90;;;;;;5015251;28;20482;-81
2023/10/06 09:37:24;;;;;;;13.05;6.13;;;18.00;99.90;;;;;;5014063;28;20120;-82
2023/10/06 09:42:47;;;;;;;10.13;6.18;;;18.00;99.90;;;;;;5014092;28;20052;-83
2023/10/06 09:45:17;;;;;;;16.27;6.78;;;18.10;99.90;;;;;;5014985;28;20046;-80
2023/10/06 09:47:48;;;;;;;10.70;6.97;;;18.20;99.90;;;;;;5015229;28;20046;-81
2023/10/06 09:50:21;;;;;;;8.15;5.80;;;18.20;99.90;;;;;;5013886;28;20077;-80
2023/10/06 09:52:48;;;;;;;11.40;6.47;;;18.20;99.90;;;;;;5014209;28;20081;-81
2023/10/06 09:55:21;;;;;;;15.05;6.22;;;18.20;99.90;;;;;;5013246;28;20486;-81
2023/10/06 09:57:48;;;;;;;8.27;5.65;;;18.20;99.90;;;;;;5014645;28;20058;-81
2023/10/06 10:00:19;;;;;;;6.80;5.60;;;18.10;99.90;;;;;;5014055;28;20508;-79
2023/10/06 10:02:48;;;;;;;10.32;5.60;;;18.20;99.90;;;;;;5014591;28;20121;-78
2023/10/06 10:05:18;;;;;;;11.00;5.13;;;18.40;99.90;;;;;;5014211;28;20052;-78
2023/10/06 10:07:46;;;;;;;8.05;5.07;;;18.90;99.90;;;;;;5014252;28;20081;-80
2023/10/06 10:10:13;;;;;;;11.48;4.88;;;19.40;99.90;;;;;;5013853;28;20050;-78
2023/10/06 10:12:57;;;;;;;9.23;5.72;;;19.60;99.90;;;;;;5014146;28;20053;-79
2023/10/06 10:15:23;;;;;;;12.65;5.18;;;19.70;99.90;;;;;;5013985;28;20049;-78
2023/10/06 10:18:05;;;;;;;9.05;5.15;;;19.90;99.90;;;;;;5014159;28;20053;-78
2023/10/06 10:20:34;;;;;;;11.75;4.88;;;20.50;99.90;;;;;;5014586;28;20046;-78
2023/10/06 10:23:03;;;;;;;8.23;5.07;;;20.60;99.90;;;;;;5014104;28;20042;-78
2023/10/06 10:25:30;;;;;;;10.27;5.15;;;20.90;99.90;;;;;;5013991;28;20046;-78
2023/10/06 10:28:17;;;;;;;9.23;4.97;;;21.40;99.90;;;;;;5014068;28;20046;-81
2023/10/06 10:30:56;;;;;;;14.18;5.38;;;21.70;99.90;;;;;;5013822;28;20529;-78
2023/10/06 10:33:34;;;;;;;9.20;4.35;;;21.30;99.90;;;;;;5014013;28;20054;-79
2023/10/06 10:36:18;;;;;;;9.90;3.95;;;21.00;99.90;;;;;;5012395;28;20054;-79
2023/10/06 10:38:45;;;;;;;9.45;4.30;;;20.70;99.90;;;;;;5014074;28;20054;-79
2023/10/06 10:41:11;;;;;;;8.35;4.53;;;20.50;99.90;;;;;;5013671;28;20050;-79
2023/10/06 10:43:48;;;;;;;10.20;4.95;;;20.30;99.90;;;;;;5013822;28;20042;-79
2023/10/06 10:46:30;;;;;;;9.77;4.95;;;20.30;99.90;;;;;;5013878;28;20069;-79
2023/10/06 10:49:00;;;;;;;7.30;4.68;;;20.10;99.90;;;;;;5012438;28;20658;-79
2023/10/06 10:51:26;;;;;;;8.23;4.80;;;20.10;99.90;;;;;;5013294;28;20045;-79
2023/10/06 10:53:52;;;;;;;8.82;4.95;;;20.20;99.90;;;;;;5013549;28;20483;-80
2023/10/06 10:56:34;;;;;;;10.75;4.25;;;20.20;99.90;;;;;;5012381;28;20053;-80
2023/10/06 10:59:00;;;;;;;9.98;4.43;;;20.20;99.90;;;;;;5013628;28;20056;-79
2023/10/06 11:01:31;;;;;;;9.95;4.32;;;20.20;99.90;;;;;;5013666;28;20053;-79
2023/10/06 11:04:12;;;;;;;13.23;4.85;;;20.10;99.90;;;;;;5013419;28;20050;-79
2023/10/06 11:06:58;;;;;;;6.40;4.13;;;20.30;99.90;;;;;;5011730;28;20079;-79
2023/10/06 11:09:26;;;;;;;10.38;4.32;;;20.50;99.90;;;;;;5012422;28;20049;-81
2023/10/06 11:11:58;;;;;;;11.00;4.65;;;20.50;99.90;;;;;;5013225;28;20136;-80
2023/10/06 11:14:26;;;;;;;8.73;4.47;;;20.50;99.90;;;;;;5013219;28;20501;-80
2023/10/06 11:16:53;;;;;;;8.27;3.80;;;20.40;99.90;;;;;;5012184;28;20372;-79
2023/10/06 11:19:19;;;;;;;7.63;4.18;;;20.30;99.90;;;;;;5012089;28;20108;-80
2023/10/06 11:21:48;;;;;;;9.85;4.15;;;20.30;99.90;;;;;;5012040;28;20128;-79
2023/10/06 11:24:27;;;;;;;9.60;3.90;;;20.20;99.90;;;;;;5012981;28;20054;-80
2023/10/06 11:26:53;;;;;;;9.45;4.05;;;20.10;99.90;;;;;;5013503;28;20041;-80
2023/10/06 11:29:32;;;;;;;5.20;3.47;;;20.10;99.90;;;;;;5011312;28;20377;-79
2023/10/06 11:32:00;;;;;;;8.13;4.07;;;20.10;99.90;;;;;;5013053;28;20144;-79
2023/10/06 11:34:26;;;;;;;12.30;4.35;;;20.00;99.90;;;;;;4995824;28;20038;-80
2023/10/06 11:36:58;;;;;;;7.72;3.95;;;20.00;99.90;;;;;;5012898;28;20049;-79
2023/10/06 11:39:32;;;;;;;13.45;5.07;;;19.90;99.90;;;;;;5013078;28;20111;-82
2023/10/06 11:42:25;;;;;;;10.77;5.25;;;19.90;99.90;;;;;;5013571;28;20119;-80
2023/10/06 11:44:55;;;;;;;9.35;4.78;;;19.80;99.90;;;;;;5012869;28;20050;-81
2023/10/06 11:47:26;;;;;;;7.50;3.78;;;19.80;99.90;;;;;;5012797;28;20056;-81
2023/10/06 11:49:58;;;;;;;10.68;4.47;;;19.90;99.90;;;;;;5012725;28;20042;-81
2023/10/06 11:52:25;;;;;;;12.82;4.15;;;19.90;99.90;;;;;;5011998;28;20053;-80
2023/10/06 11:54:51;;;;;;;9.85;4.82;;;19.90;99.90;;;;;;5012990;28;20042;-81
2023/10/06 11:57:41;;;;;;;5.57;3.60;;;20.00;99.90;;;;;;5012832;28;20061;-81
2023/10/06 12:00:10;;;;;;;7.65;4.07;;;20.00;99.90;;;;;;5011970;28;20513;-81
2023/10/06 12:02:51;;;;;;;12.02;4.65;;;20.10;99.90;;;;;;5013217;28;20592;-82
2023/10/06 12:05:24;;;;;;;8.77;4.30;;;20.10;99.90;;;;;;5012766;28;20429;-80
2023/10/06 12:07:50;;;;;;;5.90;4.22;;;20.10;99.90;;;;;;5012825;28;20408;-84
2023/10/06 12:10:20;;;;;;;11.23;4.85;;;20.10;99.90;;;;;;5012668;28;20038;-80
2023/10/06 12:12:50;;;;;;;8.20;4.60;;;20.20;99.90;;;;;;5014715;28;20046;-81
2023/10/06 12:15:16;;;;;;;8.93;3.65;;;20.20;99.90;;;;;;5030999;28;20097;-80
2023/10/06 12:17:43;;;;;;;7.40;4.00;;;20.20;99.90;;;;;;5033377;28;20038;-81
2023/10/06 12:20:13;;;;;;;13.60;4.47;;;20.20;99.90;;;;;;5014443;28;20045;-82
2023/10/06 12:22:43;;;;;;;7.38;3.65;;;20.20;99.90;;;;;;5012079;28;20046;-81
2023/10/06 12:25:16;;;;;;;8.68;4.72;;;20.20;99.90;;;;;;5012787;28;20050;-83
2023/10/06 12:27:45;;;;;;;8.02;4.65;;;20.20;99.90;;;;;;5013000;28;20057;-80
2023/10/06 12:30:17;;;;;;;10.45;4.20;;;20.10;99.90;;;;;;5012875;28;20042;-80
2023/10/06 12:32:45;;;;;;;11.65;4.00;;;20.00;99.90;;;;;;5012582;28;20068;-81
2023/10/06 12:35:12;;;;;;;9.80;4.70;;;20.10;99.90;;;;;;5011263;28;20081;-81
2023/10/06 12:37:41;;;;;;;6.53;3.75;;;20.20;99.90;;;;;;5012020;28;20046;-81
2023/10/06 12:40:13;;;;;;;9.18;4.60;;;20.30;99.90;;;;;;5011823;28;20125;-80
2023/10/06 12:42:40;;;;;;;10.93;4.20;;;20.50;99.90;;;;;;5011987;28;20376;-82
2023/10/06 12:45:08;;;;;;;10.90;4.28;;;20.60;99.90;;;;;;5012888;28;20058;-83
2023/10/06 12:47:34;;;;;;;12.75;4.85;;;20.60;99.90;;;;;;5012353;28;20057;-82
2023/10/06 12:50:05;;;;;;;8.40;3.90;;;20.50;99.90;;;;;;5012252;28;20049;-84
2023/10/06 12:52:40;;;;;;;9.35;4.10;;;20.40;99.90;;;;;;5011736;28;20054;-81
2023/10/06 12:55:10;;;;;;;10.80;4.03;;;20.40;99.90;;;;;;5012741;28;20042;-82
2023/10/06 12:57:42;;;;;;;9.10;3.65;;;20.40;99.90;;;;;;5010824;28;20589;-81
2023/10/06 13:00:09;;;;;;;8.50;4.53;;;20.50;99.90;;;;;;5013763;28;20096;-80
2023/10/06 13:02:35;;;;;;;8.38;4.07;;;20.60;99.90;;;;;;5015641;28;20048;-79
2023/10/06 13:05:13;;;;;;;11.90;4.38;;;20.60;99.90;;;;;;5016365;28;20080;-80
2023/10/06 13:07:39;;;;;;;12.23;4.78;;;20.50;99.90;;;;;;5015534;28;20081;-81
2023/10/06 13:10:07;;;;;;;9.60;4.00;;;20.50;99.90;;;;;;5015463;28;20045;-79
2023/10/06 13:12:45;;;;;;;8.80;3.03;;;20.50;99.90;;;;;;5015452;28;20108;-80
2023/10/06 13:15:13;;;;;;;10.30;3.85;;;20.50;99.90;;;;;;5015292;28;20117;-79
2023/10/06 13:17:40;;;;;;;10.15;3.67;;;20.40;99.90;;;;;;5014547;28;20088;-80